createdAt,value
2023-03-16T00:00:17.951Z,100.00
2023-03-16T00:02:45.848Z,100.00
2023-03-16T00:05:13.118Z,100.00
2023-03-16T00:07:41.484Z,100.00
2023-03-16T00:10:11.868Z,100.00
2023-03-16T00:12:42.835Z,100.00
2023-03-16T00:15:14.182Z,100.00
2023-03-16T00:17:41.030Z,100.00
2023-03-16T00:20:09.275Z,100.00
2023-03-16T00:22:36.513Z,100.00
2023-03-16T00:25:04.338Z,100.00
2023-03-16T00:27:31.736Z,100.00
2023-03-16T00:29:59.028Z,100.00
2023-03-16T00:32:27.572Z,100.00
2023-03-16T00:34:54.834Z,100.00
2023-03-16T00:37:23.000Z,100.00
2023-03-16T00:39:51.095Z,100.00
2023-03-16T00:42:18.825Z,100.00
2023-03-16T00:44:56.723Z,100.00
2023-03-16T00:47:28.876Z,100.00
2023-03-16T00:49:55.706Z,100.00
2023-03-16T00:52:23.050Z,100.00
2023-03-16T00:54:52.319Z,100.00
2023-03-16T00:57:21.886Z,100.00
2023-03-16T00:59:48.657Z,100.00
2023-03-16T01:02:24.901Z,100.00
2023-03-16T01:04:53.887Z,100.00
2023-03-16T01:07:21.473Z,100.00
2023-03-16T01:09:49.004Z,100.00
2023-03-16T01:12:19.959Z,100.00
2023-03-16T01:14:47.518Z,100.00
2023-03-16T01:17:15.467Z,100.00
2023-03-16T01:19:43.023Z,100.00
2023-03-16T01:22:11.035Z,100.00
2023-03-16T01:24:39.489Z,100.00
2023-03-16T01:27:07.582Z,100.00
2023-03-16T01:29:34.716Z,100.00
2023-03-16T01:32:01.847Z,100.00
2023-03-16T01:34:29.505Z,100.00
2023-03-16T01:36:56.979Z,100.00
2023-03-16T01:39:56.886Z,100.00
2023-03-16T01:42:24.194Z,100.00
2023-03-16T01:44:56.404Z,100.00
2023-03-16T01:47:28.777Z,100.00
2023-03-16T01:49:56.043Z,100.00
2023-03-16T01:52:28.506Z,100.00
2023-03-16T01:55:01.549Z,100.00
2023-03-16T01:57:34.698Z,100.00
2023-03-16T02:00:19.124Z,100.00
2023-03-16T02:03:17.101Z,100.00
2023-03-16T02:06:18.173Z,100.00
2023-03-16T02:08:48.984Z,100.00
2023-03-16T02:11:17.561Z,100.00
2023-03-16T02:13:52.286Z,100.00
2023-03-16T02:16:22.118Z,100.00
2023-03-16T02:18:50.478Z,100.00
2023-03-16T02:21:34.639Z,100.00
2023-03-16T02:24:02.695Z,100.00
2023-03-16T02:26:50.309Z,100.00
2023-03-16T02:29:43.495Z,100.00
2023-03-16T02:32:11.290Z,100.00
2023-03-16T02:34:39.750Z,100.00
2023-03-16T02:37:07.394Z,100.00
2023-03-16T02:39:34.876Z,100.00
2023-03-16T02:42:01.845Z,100.00
2023-03-16T02:44:34.705Z,100.00
2023-03-16T02:47:05.879Z,100.00
2023-03-16T02:49:40.906Z,100.00
2023-03-16T02:52:07.844Z,100.00
2023-03-16T02:54:34.638Z,100.00
2023-03-16T02:57:01.793Z,100.00
2023-03-16T02:59:29.664Z,100.00
2023-03-16T03:01:58.035Z,100.00
2023-03-16T03:04:24.995Z,100.00
2023-03-16T03:06:52.137Z,100.00
2023-03-16T03:09:19.127Z,100.00
2023-03-16T03:11:46.634Z,100.00
2023-03-16T03:14:16.338Z,100.00
2023-03-16T03:16:45.985Z,100.00
2023-03-16T03:19:13.610Z,100.00
2023-03-16T03:21:44.856Z,100.00
2023-03-16T03:24:12.205Z,100.00
2023-03-16T03:26:39.154Z,100.00
2023-03-16T03:29:08.871Z,100.00
2023-03-16T03:31:36.961Z,100.00
2023-03-16T03:34:06.152Z,100.00
2023-03-16T03:36:34.618Z,100.00
2023-03-16T03:39:04.572Z,100.00
2023-03-16T03:41:33.622Z,100.00
2023-03-16T03:44:01.894Z,100.00
2023-03-16T03:46:34.493Z,100.00
2023-03-16T03:49:04.792Z,100.00
2023-03-16T03:51:33.479Z,100.00
2023-03-16T03:54:08.109Z,100.00
2023-03-16T03:56:40.787Z,100.00
2023-03-16T03:59:11.720Z,100.00
2023-03-16T04:02:01.637Z,100.00
2023-03-16T04:04:43.514Z,100.00
2023-03-16T04:07:11.667Z,100.00
2023-03-16T04:09:38.953Z,100.00
2023-03-16T04:12:08.532Z,100.00
2023-03-16T04:14:35.573Z,100.00
2023-03-16T04:17:04.513Z,100.00
2023-03-16T04:19:32.328Z,100.00
2023-03-16T04:22:00.016Z,100.00
2023-03-16T04:24:28.161Z,100.00
2023-03-16T04:26:55.019Z,100.00
2023-03-16T04:29:22.152Z,100.00
2023-03-16T04:31:53.434Z,100.00
2023-03-16T04:34:24.544Z,100.00
2023-03-16T04:36:52.516Z,100.00
2023-03-16T04:39:20.290Z,100.00
2023-03-16T04:41:47.527Z,100.00
2023-03-16T04:44:20.205Z,100.00
2023-03-16T04:46:48.687Z,100.00
2023-03-16T04:49:16.486Z,100.00
2023-03-16T04:51:46.692Z,100.00
2023-03-16T04:54:15.741Z,100.00
2023-03-16T04:56:43.471Z,100.00
2023-03-16T04:59:33.106Z,100.00
2023-03-16T05:02:13.714Z,100.00
2023-03-16T05:04:42.614Z,100.00
2023-03-16T05:07:14.675Z,100.00
2023-03-16T05:09:45.780Z,100.00
2023-03-16T05:12:12.715Z,100.00
2023-03-16T05:14:41.052Z,100.00
2023-03-16T05:17:18.769Z,100.00
2023-03-16T05:19:45.731Z,100.00
2023-03-16T05:22:15.336Z,100.00
2023-03-16T05:24:53.866Z,100.00
2023-03-16T05:27:22.573Z,100.00
2023-03-16T05:29:49.686Z,100.00
2023-03-16T05:32:16.663Z,100.00
2023-03-16T05:34:43.783Z,100.00
2023-03-16T05:37:11.238Z,100.00
2023-03-16T05:39:38.212Z,100.00
2023-03-16T05:42:05.588Z,100.00
2023-03-16T05:44:41.083Z,100.00
2023-03-16T05:47:13.253Z,100.00
2023-03-16T05:49:44.085Z,100.00
2023-03-16T05:52:19.572Z,100.00
2023-03-16T05:54:46.883Z,100.00
2023-03-16T05:57:20.278Z,100.00
2023-03-16T05:59:48.617Z,100.00
2023-03-16T06:02:15.809Z,100.00
2023-03-16T06:04:42.789Z,100.00
2023-03-16T06:07:10.445Z,100.00
2023-03-16T06:09:40.735Z,100.00
2023-03-16T06:12:13.015Z,100.00
2023-03-16T06:14:40.738Z,100.00
2023-03-16T06:17:12.102Z,100.00
2023-03-16T06:19:42.237Z,100.00
2023-03-16T06:22:09.650Z,100.00
2023-03-16T06:24:45.672Z,100.00
2023-03-16T06:27:20.354Z,100.00
2023-03-16T06:30:09.047Z,100.00
2023-03-16T06:32:37.950Z,100.00
2023-03-16T06:35:05.274Z,100.00
2023-03-16T06:37:34.857Z,100.00
2023-03-16T06:40:06.863Z,100.00
2023-03-16T06:42:35.022Z,100.00
2023-03-16T06:45:05.137Z,100.00
2023-03-16T06:47:32.900Z,100.00
2023-03-16T06:50:00.482Z,100.00
2023-03-16T06:52:27.812Z,100.00
2023-03-16T06:54:58.205Z,100.00
2023-03-16T06:57:25.620Z,100.00
2023-03-16T06:59:52.658Z,100.00
2023-03-16T07:02:19.802Z,100.00
2023-03-16T07:04:47.808Z,100.00
2023-03-16T07:07:16.853Z,100.00
2023-03-16T07:09:43.632Z,100.00
2023-03-16T07:12:10.626Z,100.00
2023-03-16T07:14:39.204Z,100.00
2023-03-16T07:17:10.464Z,100.00
2023-03-16T07:19:38.018Z,100.00
2023-03-16T07:22:05.185Z,100.00
2023-03-16T07:24:35.811Z,100.00
2023-03-16T07:27:02.611Z,100.00
2023-03-16T07:29:31.792Z,100.00
2023-03-16T07:31:59.666Z,100.00
2023-03-16T07:34:33.097Z,100.00
2023-03-16T07:37:00.459Z,100.00
2023-03-16T07:39:30.001Z,100.00
2023-03-16T07:42:02.138Z,100.00
2023-03-16T07:44:37.784Z,100.00
2023-03-16T07:47:14.035Z,100.00
2023-03-16T07:49:41.748Z,100.00
2023-03-16T07:52:13.251Z,100.00
2023-03-16T07:54:41.447Z,100.00
2023-03-16T07:57:09.966Z,100.00
2023-03-16T07:59:47.396Z,100.00
2023-03-16T08:02:18.357Z,100.00
2023-03-16T08:04:45.799Z,100.00
2023-03-16T08:07:14.802Z,100.00
2023-03-16T08:09:54.627Z,100.00
2023-03-16T08:12:26.409Z,100.00
2023-03-16T08:14:54.163Z,100.00
2023-03-16T08:17:26.218Z,100.00
2023-03-16T08:19:57.295Z,100.00
2023-03-16T08:22:26.053Z,100.00
2023-03-16T08:24:53.720Z,100.00
2023-03-16T08:27:21.746Z,100.00
2023-03-16T08:29:52.742Z,100.00
2023-03-16T08:32:20.802Z,100.00
2023-03-16T08:34:48.084Z,100.00
2023-03-16T08:37:15.818Z,100.00
2023-03-16T08:39:44.386Z,100.00
2023-03-16T08:42:21.274Z,100.00
2023-03-16T08:45:05.410Z,100.00
2023-03-16T08:47:42.158Z,100.00
2023-03-16T08:50:17.641Z,100.00
2023-03-16T08:52:52.250Z,100.00
2023-03-16T08:55:24.108Z,100.00
2023-03-16T08:58:05.912Z,100.00
2023-03-16T09:00:35.646Z,100.00
2023-03-16T09:16:47.718Z,100.00
2023-03-16T09:30:18.091Z,100.00
2023-03-16T09:35:36.684Z,100.00
2023-03-16T09:41:12.857Z,100.00
2023-03-16T09:44:20.937Z,100.00
2023-03-16T09:55:37.260Z,100.00
2023-03-16T09:58:07.584Z,99.95
2023-03-16T10:01:11.734Z,100.00
2023-03-16T10:04:07.577Z,99.27
2023-03-16T10:06:47.803Z,98.39
2023-03-16T10:09:20.651Z,98.31
2023-03-16T10:11:53.577Z,98.10
2023-03-16T10:14:44.780Z,97.54
2023-03-16T10:17:20.802Z,96.89
2023-03-16T10:19:54.327Z,96.40
2023-03-16T10:22:26.023Z,96.16
2023-03-16T10:25:08.002Z,96.25
2023-03-16T10:27:39.459Z,95.88
2023-03-16T10:30:19.350Z,95.88
2023-03-16T10:32:46.782Z,95.64
2023-03-16T10:35:41.492Z,95.39
2023-03-16T10:38:32.588Z,95.13
2023-03-16T10:41:00.830Z,94.66
2023-03-16T10:43:28.682Z,94.59
2023-03-16T10:46:01.788Z,94.56
2023-03-16T10:48:34.070Z,94.37
2023-03-16T10:51:03.409Z,94.29
2023-03-16T10:53:32.202Z,94.33
2023-03-16T10:56:25.537Z,94.42
2023-03-16T10:58:53.431Z,94.51
2023-03-16T11:01:28.558Z,94.47
2023-03-16T11:03:56.500Z,94.86
2023-03-16T11:06:30.511Z,94.73
2023-03-16T11:09:12.594Z,94.70
2023-03-16T11:11:39.734Z,94.30
2023-03-16T11:14:14.792Z,94.36
2023-03-16T11:17:10.066Z,94.40
2023-03-16T11:19:44.955Z,94.16
2023-03-16T11:22:19.456Z,94.18
2023-03-16T11:24:52.467Z,93.87
2023-03-16T11:27:29.420Z,93.70
2023-03-16T11:30:14.591Z,93.73
2023-03-16T11:32:46.483Z,94.02
2023-03-16T11:35:20.901Z,94.01
2023-03-16T11:38:01.166Z,94.10
2023-03-16T11:40:52.241Z,94.22
2023-03-16T11:43:24.008Z,94.22
2023-03-16T11:46:10.555Z,94.03
2023-03-16T11:49:01.208Z,93.65
2023-03-16T11:51:44.219Z,93.41
2023-03-16T11:54:36.632Z,93.39
2023-03-16T11:57:23.244Z,93.36
2023-03-16T12:00:15.232Z,93.37
2023-03-16T12:03:02.051Z,93.56
2023-03-16T12:05:30.708Z,93.36
2023-03-16T12:08:04.197Z,93.52
2023-03-16T12:10:35.732Z,93.64
2023-03-16T12:13:11.611Z,93.69
2023-03-16T12:15:47.580Z,93.68
2023-03-16T12:18:25.800Z,93.84
2023-03-16T12:20:54.032Z,93.58
2023-03-16T12:23:49.061Z,93.20
2023-03-16T12:26:16.975Z,93.06
2023-03-16T12:28:43.987Z,92.92
2023-03-16T12:31:18.697Z,92.69
2023-03-16T12:33:53.817Z,92.47
2023-03-16T12:36:39.696Z,91.98
2023-03-16T12:39:45.350Z,91.98
2023-03-16T12:42:16.255Z,92.16
2023-03-16T12:45:16.066Z,92.61
2023-03-16T12:47:46.413Z,92.75
2023-03-16T12:50:14.969Z,92.94
2023-03-16T12:52:47.590Z,93.28
2023-03-16T12:55:34.314Z,93.41
2023-03-16T12:58:02.463Z,93.50
2023-03-16T13:00:56.627Z,93.82
2023-03-16T13:03:24.739Z,94.12
2023-03-16T13:05:55.423Z,94.48
2023-03-16T13:08:23.025Z,94.66
2023-03-16T13:11:15.934Z,95.03
2023-03-16T13:13:59.675Z,95.00
2023-03-16T13:16:35.705Z,95.53
2023-03-16T13:19:18.976Z,95.82
2023-03-16T13:21:45.837Z,96.05
2023-03-16T13:24:36.308Z,96.29
2023-03-16T13:27:19.944Z,96.72
2023-03-16T13:29:58.746Z,97.26
2023-03-16T13:32:28.198Z,97.52
2023-03-16T13:34:57.888Z,97.85
2023-03-16T13:37:25.018Z,97.85
2023-03-16T13:39:54.659Z,97.88
2023-03-16T13:42:31.972Z,97.65
2023-03-16T13:45:14.863Z,97.43
2023-03-16T13:47:43.041Z,97.44
2023-03-16T13:50:13.193Z,97.44
2023-03-16T13:52:42.756Z,97.86
2023-03-16T13:55:17.520Z,97.77
2023-03-16T13:57:45.035Z,98.13
2023-03-16T14:00:36.324Z,98.38
2023-03-16T14:03:15.794Z,98.26
2023-03-16T14:05:47.246Z,98.47
2023-03-16T14:08:22.962Z,98.34
2023-03-16T14:10:50.417Z,98.67
2023-03-16T14:13:23.888Z,99.25
2023-03-16T14:15:54.997Z,99.21
2023-03-16T14:18:31.562Z,99.47
2023-03-16T14:20:58.217Z,99.22
2023-03-16T14:23:36.243Z,99.26
2023-03-16T14:26:04.927Z,99.85
2023-03-16T14:28:34.241Z,100.00
2023-03-16T14:31:04.221Z,100.00
2023-03-16T14:33:37.170Z,100.00
2023-03-16T14:36:18.610Z,100.00
2023-03-16T14:38:48.430Z,100.00
2023-03-16T14:41:27.947Z,100.00
2023-03-16T14:43:57.158Z,100.00
2023-03-16T14:46:30.225Z,100.00
2023-03-16T14:49:00.804Z,100.00
2023-03-16T14:51:28.006Z,100.00
2023-03-16T14:53:55.109Z,100.00
2023-03-16T14:56:22.743Z,100.00
2023-03-16T14:58:50.152Z,100.00
2023-03-16T15:01:17.758Z,100.00
2023-03-16T15:03:44.449Z,100.00
2023-03-16T15:06:12.078Z,100.00
2023-03-16T15:08:43.706Z,100.00
2023-03-16T15:11:10.746Z,100.00
2023-03-16T15:13:39.300Z,100.00
2023-03-16T15:16:07.102Z,100.00
2023-03-16T15:18:38.762Z,100.00
2023-03-16T15:21:12.213Z,100.00
2023-03-16T15:23:39.984Z,100.00
2023-03-16T15:26:09.066Z,100.00
2023-03-16T15:28:37.041Z,100.00
2023-03-16T15:31:04.748Z,100.00
2023-03-16T15:33:32.144Z,100.00
2023-03-16T15:36:00.787Z,100.00
2023-03-16T15:38:35.727Z,100.00
2023-03-16T15:41:02.954Z,100.00
2023-03-16T15:43:30.278Z,100.00
2023-03-16T15:45:59.368Z,100.00
2023-03-16T15:48:26.620Z,100.00
2023-03-16T15:50:55.636Z,100.00
2023-03-16T15:53:30.885Z,100.00
2023-03-16T15:56:04.151Z,100.00
2023-03-16T15:58:35.779Z,100.00
2023-03-16T16:01:04.709Z,100.00
2023-03-16T16:03:33.467Z,100.00
2023-03-16T16:06:00.584Z,100.00
2023-03-16T16:08:27.461Z,100.00
2023-03-16T16:10:54.874Z,100.00
2023-03-16T16:13:34.100Z,100.00
2023-03-16T16:16:16.210Z,100.00
2023-03-16T16:18:43.096Z,100.00
2023-03-16T16:21:28.687Z,100.00
2023-03-16T16:23:56.270Z,100.00
2023-03-16T16:26:47.049Z,100.00
2023-03-16T16:29:21.508Z,100.00
2023-03-16T16:31:48.519Z,100.00
2023-03-16T16:34:20.523Z,100.00
2023-03-16T16:36:48.456Z,100.00
2023-03-16T16:39:15.616Z,100.00
2023-03-16T16:41:48.672Z,100.00
2023-03-16T16:44:24.577Z,100.00
2023-03-16T16:46:51.684Z,100.00
2023-03-16T16:49:25.950Z,100.00
2023-03-16T16:51:53.269Z,100.00
2023-03-16T16:54:25.014Z,100.00
2023-03-16T16:56:52.773Z,100.00
2023-03-16T16:59:21.183Z,100.00
2023-03-16T17:01:50.171Z,100.00
2023-03-16T17:04:24.903Z,100.00
2023-03-16T17:06:59.196Z,100.00
2023-03-16T17:09:27.274Z,100.00
2023-03-16T17:11:58.028Z,100.00
2023-03-16T17:14:27.183Z,100.00
2023-03-16T17:17:02.115Z,100.00
2023-03-16T17:19:31.105Z,100.00
2023-03-16T17:21:57.844Z,100.00
2023-03-16T17:24:29.187Z,100.00
2023-03-16T17:26:58.250Z,100.00
2023-03-16T17:29:29.368Z,100.00
2023-03-16T17:32:02.464Z,100.00
2023-03-16T17:34:31.661Z,100.00
2023-03-16T17:36:58.696Z,100.00
2023-03-16T17:39:31.142Z,100.00
2023-03-16T17:42:06.344Z,100.00
2023-03-16T17:44:37.721Z,100.00
2023-03-16T17:47:12.494Z,100.00
2023-03-16T17:49:39.804Z,100.00
2023-03-16T17:52:21.019Z,100.00
2023-03-16T17:54:51.396Z,100.00
2023-03-16T17:57:29.104Z,100.00
2023-03-16T17:59:55.976Z,100.00
2023-03-16T18:02:43.986Z,100.00
2023-03-16T18:05:37.873Z,100.00
2023-03-16T18:08:18.123Z,100.00
2023-03-16T18:10:49.597Z,99.99
2023-03-16T18:13:27.552Z,99.79
2023-03-16T18:15:59.279Z,99.59
2023-03-16T18:18:27.610Z,99.57
2023-03-16T18:20:56.418Z,99.37
2023-03-16T18:23:30.015Z,98.54
2023-03-16T18:26:01.453Z,98.69
2023-03-16T18:28:32.213Z,98.52
2023-03-16T18:30:59.328Z,98.23
2023-03-16T18:33:27.028Z,98.05
2023-03-16T18:35:56.181Z,98.18
2023-03-16T18:38:30.003Z,97.93
2023-03-16T18:41:03.026Z,97.78
2023-03-16T18:43:29.918Z,97.82
2023-03-16T18:45:57.992Z,97.71
2023-03-16T18:48:28.809Z,97.72
2023-03-16T18:50:56.080Z,97.96
2023-03-16T18:53:23.264Z,98.15
2023-03-16T18:55:50.281Z,98.52
2023-03-16T18:58:20.293Z,98.95
2023-03-16T19:00:55.874Z,98.97
2023-03-16T19:03:27.420Z,98.86
2023-03-16T19:05:55.696Z,98.95
2023-03-16T19:08:22.630Z,98.97
2023-03-16T19:10:52.250Z,98.98
2023-03-16T19:13:21.136Z,98.88
2023-03-16T19:15:49.070Z,98.93
2023-03-16T19:18:19.555Z,98.81
2023-03-16T19:20:49.947Z,99.13
2023-03-16T19:23:25.244Z,98.75
2023-03-16T19:25:52.782Z,98.81
2023-03-16T19:28:36.864Z,98.95
2023-03-16T19:31:18.012Z,99.02
2023-03-16T19:33:45.922Z,98.89
2023-03-16T19:36:18.668Z,98.75
2023-03-16T19:38:49.937Z,98.85
2023-03-16T19:41:26.656Z,98.70
2023-03-16T19:43:58.484Z,98.86
2023-03-16T19:46:28.771Z,98.85
2023-03-16T19:48:57.290Z,98.73
2023-03-16T19:51:26.148Z,98.94
2023-03-16T19:53:55.266Z,98.85
2023-03-16T19:56:23.501Z,98.88
2023-03-16T19:58:51.919Z,99.05
2023-03-16T20:01:21.523Z,99.37
2023-03-16T20:03:48.928Z,99.15
2023-03-16T20:06:20.637Z,99.41
2023-03-16T20:08:49.540Z,99.71
2023-03-16T20:11:18.209Z,99.82
2023-03-16T20:13:46.312Z,99.84
2023-03-16T20:16:34.631Z,99.70
2023-03-16T20:19:04.632Z,99.97
2023-03-16T20:21:33.017Z,100.00
2023-03-16T20:23:59.860Z,100.00
2023-03-16T20:26:31.722Z,100.00
2023-03-16T20:28:59.994Z,100.00
2023-03-16T20:31:30.685Z,100.00
2023-03-16T20:33:58.817Z,100.00
2023-03-16T20:36:26.016Z,100.00
2023-03-16T20:38:54.857Z,100.00
2023-03-16T20:41:25.769Z,100.00
2023-03-16T20:43:53.968Z,100.00
2023-03-16T20:46:26.717Z,100.00
2023-03-16T20:48:54.631Z,100.00
2023-03-16T20:51:24.304Z,100.00
2023-03-16T20:53:52.172Z,100.00
2023-03-16T20:56:20.467Z,100.00
2023-03-16T20:58:50.225Z,100.00
2023-03-16T21:01:20.288Z,100.00
2023-03-16T21:03:53.735Z,100.00
2023-03-16T21:06:23.175Z,100.00
2023-03-16T21:08:51.392Z,100.00
2023-03-16T21:11:23.529Z,100.00
2023-03-16T21:13:52.914Z,100.00
2023-03-16T21:16:20.316Z,100.00
2023-03-16T21:18:47.732Z,100.00
2023-03-16T21:21:16.106Z,100.00
2023-03-16T21:23:43.223Z,100.00
2023-03-16T21:26:15.012Z,100.00
2023-03-16T21:28:43.390Z,100.00
2023-03-16T21:31:19.434Z,100.00
2023-03-16T21:33:47.728Z,100.00
2023-03-16T21:36:16.862Z,100.00
2023-03-16T21:38:45.505Z,100.00
2023-03-16T21:41:13.574Z,100.00
2023-03-16T21:43:43.596Z,100.00
2023-03-16T21:46:19.186Z,100.00
2023-03-16T21:48:49.031Z,100.00
2023-03-16T21:51:24.452Z,100.00
2023-03-16T21:53:52.976Z,100.00
2023-03-16T21:56:22.344Z,100.00
2023-03-16T21:58:49.913Z,100.00
2023-03-16T22:01:24.278Z,100.00
2023-03-16T22:03:53.556Z,100.00
2023-03-16T22:06:21.518Z,99.81
2023-03-16T22:08:50.612Z,99.83
2023-03-16T22:11:22.658Z,99.76
2023-03-16T22:13:51.577Z,99.40
2023-03-16T22:16:22.583Z,99.58
2023-03-16T22:18:51.501Z,99.36
2023-03-16T22:21:26.941Z,99.08
2023-03-16T22:23:57.611Z,98.48
2023-03-16T22:26:24.926Z,98.44
2023-03-16T22:29:00.038Z,98.23
2023-03-16T22:31:34.487Z,98.18
2023-03-16T22:34:02.328Z,97.93
2023-03-16T22:36:29.314Z,98.15
2023-03-16T22:38:59.277Z,98.18
2023-03-16T22:41:26.052Z,98.22
2023-03-16T22:43:53.765Z,97.95
2023-03-16T22:46:23.020Z,98.06
2023-03-16T22:48:51.715Z,98.21
2023-03-16T22:51:30.943Z,98.16
2023-03-16T22:54:08.121Z,98.19
2023-03-16T22:56:35.577Z,98.03
2023-03-16T22:59:04.153Z,98.07
2023-03-16T23:01:39.187Z,97.87
2023-03-16T23:04:15.584Z,98.18
2023-03-16T23:06:44.680Z,98.50
2023-03-16T23:09:13.333Z,98.64
2023-03-16T23:11:43.021Z,98.67
2023-03-16T23:14:15.422Z,98.80
2023-03-16T23:16:42.553Z,98.55
2023-03-16T23:19:43.116Z,98.61
2023-03-16T23:22:10.461Z,98.50
2023-03-16T23:24:37.357Z,98.16
2023-03-16T23:27:04.751Z,98.05
2023-03-16T23:29:33.348Z,97.96
2023-03-16T23:32:06.013Z,97.73
2023-03-16T23:34:32.855Z,97.69
2023-03-16T23:36:59.592Z,97.50
2023-03-16T23:39:27.873Z,97.43
2023-03-16T23:41:55.666Z,97.62
2023-03-16T23:44:25.050Z,97.71
2023-03-16T23:46:52.286Z,97.33
2023-03-16T23:49:25.432Z,97.39
2023-03-16T23:51:52.648Z,97.42
2023-03-16T23:54:22.640Z,97.00
2023-03-16T23:56:50.783Z,96.75
2023-03-16T23:59:18.709Z,96.55
